Time,TemperatureF,DewpointF,PressureIn,WindDirection,WindDirectionDegrees,WindSpeedMPH,WindSpeedGustMPH,Humidity,HourlyPrecipIn,Conditions,Clouds,dailyrainin,SoftwareType,DateUTC
2013-03-07 00:02:00,49.6,48.5,30.03,WSW,253,0.0,0.0,96,0.00,,,0.00,Wunderground v.1.15,2013-03-07 08:02:00,
2013-03-07 00:08:00,49.7,48.6,30.03,WSW,254,0.0,0.0,96,0.00,,,0.00,Wunderground v.1.15,2013-03-07 08:08:00,
2013-03-07 00:14:00,49.7,48.6,30.03,WSW,254,0.0,0.0,96,0.00,,,0.00,Wunderground v.1.15,2013-03-07 08:14:00,
2013-03-07 00:20:00,49.7,48.6,30.03,WSW,253,0.0,0.0,96,0.00,,,0.00,Wunderground v.1.15,2013-03-07 08:20:00,
2013-03-07 00:26:00,49.7,48.6,30.04,WSW,253,0.0,0.0,96,0.00,,,0.00,Wunderground v.1.15,2013-03-07 08:26:00,
2013-03-07 00:32:00,49.7,48.6,30.04,SW,232,0.0,1.0,96,0.00,,,0.00,Wunderground v.1.15,2013-03-07 08:32:00,
2013-03-07 00:38:00,49.6,48.5,30.04,WSW,257,0.0,1.0,96,0.00,,,0.00,Wunderground v.1.15,2013-03-07 08:38:00,
2013-03-07 00:44:00,49.5,48.4,30.04,WSW,249,0.0,1.0,96,0.00,,,0.00,Wunderground v.1.15,2013-03-07 08:44:00,
2013-03-07 00:50:00,49.5,48.4,30.04,WNW,290,0.0,1.0,96,0.00,,,0.00,Wunderground v.1.15,2013-03-07 08:50:00,
2013-03-07 00:56:00,49.4,48.3,30.04,SW,231,0.0,1.0,96,0.00,,,0.00,Wunderground v.1.15,2013-03-07 08:56:00,
2013-03-07 01:02:00,49.3,48.5,30.03,SW,231,0.0,0.0,97,0.00,,,0.00,Wunderground v.1.15,2013-03-07 09:02:00,
2013-03-07 01:08:00,49.3,48.5,30.03,SW,231,0.0,0.0,97,0.00,,,0.00,Wunderground v.1.15,2013-03-07 09:08:00,
2013-03-07 01:14:00,49.3,48.5,30.03,SW,231,0.0,0.0,97,0.00,,,0.00,Wunderground v.1.15,2013-03-07 09:14:00,
2013-03-07 01:20:00,49.4,48.6,30.03,SW,231,0.0,0.0,97,0.00,,,0.00,Wunderground v.1.15,2013-03-07 09:20:00,
2013-03-07 01:26:00,49.3,48.5,30.03,SW,231,0.0,0.0,97,0.00,,,0.00,Wunderground v.1.15,2013-03-07 09:26:00,
2013-03-07 01:32:00,49.3,48.5,30.03,SW,231,0.0,1.0,97,0.00,,,0.00,Wunderground v.1.15,2013-03-07 09:32:00,
2013-03-07 01:38:00,49.3,48.5,30.03,SW,231,0.0,1.0,97,0.00,,,0.00,Wunderground v.1.15,2013-03-07 09:38:00,
2013-03-07 01:44:00,49.2,48.4,30.03,SW,231,0.0,1.0,97,0.00,,,0.00,Wunderground v.1.15,2013-03-07 09:44:00,
2013-03-07 01:50:00,49.2,48.4,30.03,WSW,254,0.0,1.0,97,0.00,,,0.00,Wunderground v.1.15,2013-03-07 09:50:00,
2013-03-07 01:56:00,49.2,48.4,30.03,WSW,250,0.0,1.0,97,0.00,,,0.00,Wunderground v.1.15,2013-03-07 09:56:00,
2013-03-07 02:02:00,49.3,48.5,30.03,SW,231,0.0,0.0,97,0.00,,,0.00,Wunderground v.1.15,2013-03-07 10:02:00,
2013-03-07 02:08:00,49.2,48.4,30.03,SW,231,0.0,0.0,97,0.00,,,0.00,Wunderground v.1.15,2013-03-07 10:08:00,
2013-03-07 02:14:00,49.2,48.4,30.02,WSW,243,0.0,0.0,97,0.00,,,0.00,Wunderground v.1.15,2013-03-07 10:14:00,
2013-03-07 02:20:00,49.2,48.4,30.02,WSW,247,0.0,0.0,97,0.00,,,0.00,Wunderground v.1.15,2013-03-07 10:20:00,
2013-03-07 02:26:00,49.2,48.4,30.02,WSW,238,0.0,0.0,97,0.00,,,0.00,Wunderground v.1.15,2013-03-07 10:26:00,
2013-03-07 02:32:00,49.2,48.4,30.02,WSW,253,0.0,0.0,97,0.00,,,0.00,Wunderground v.1.15,2013-03-07 10:32:00,
2013-03-07 02:38:00,49.2,48.4,30.02,WSW,240,0.0,0.0,97,0.00,,,0.00,Wunderground v.1.15,2013-03-07 10:38:00,
2013-03-07 02:44:00,49.1,48.3,30.02,WSW,249,0.0,0.0,97,0.00,,,0.00,Wunderground v.1.15,2013-03-07 10:44:00,
2013-03-07 02:50:00,49.2,48.4,30.02,WSW,248,0.0,0.0,97,0.00,,,0.00,Wunderground v.1.15,2013-03-07 10:50:00,
2013-03-07 02:56:00,49.2,48.4,30.02,WSW,248,0.0,0.0,97,0.00,,,0.00,Wunderground v.1.15,2013-03-07 10:56:00,
2013-03-07 03:02:00,49.2,48.4,30.02,WSW,249,0.0,0.0,97,0.00,,,0.00,Wunderground v.1.15,2013-03-07 11:02:00,
2013-03-07 03:08:00,49.2,48.4,30.02,WSW,246,0.0,0.0,97,0.00,,,0.00,Wunderground v.1.15,2013-03-07 11:08:00,
2013-03-07 03:14:00,49.2,48.4,30.01,WSW,246,0.0,0.0,97,0.00,,,0.00,Wunderground v.1.15,2013-03-07 11:14:00,
2013-03-07 03:20:00,49.1,48.3,30.01,WSW,246,0.0,0.0,97,0.00,,,0.00,Wunderground v.1.15,2013-03-07 11:20:00,
2013-03-07 03:26:00,49.1,48.3,30.01,WSW,246,0.0,0.0,97,0.00,,,0.00,Wunderground v.1.15,2013-03-07 11:26:00,
2013-03-07 03:32:00,49.2,48.4,30.01,WSW,243,0.0,0.0,97,0.00,,,0.00,Wunderground v.1.15,2013-03-07 11:32:00,
2013-03-07 03:38:00,49.1,48.3,30.01,WSW,247,0.0,0.0,97,0.00,,,0.00,Wunderground v.1.15,2013-03-07 11:38:00,
2013-03-07 03:44:00,49.1,48.3,30.01,WSW,248,0.0,0.0,97,0.00,,,0.00,Wunderground v.1.15,2013-03-07 11:44:00,
2013-03-07 03:50:00,49.1,48.3,30.01,WSW,247,0.0,0.0,97,0.00,,,0.00,Wunderground v.1.15,2013-03-07 11:50:00,
2013-03-07 03:56:00,49.1,48.3,30.01,WSW,248,0.0,0.0,97,0.00,,,0.00,Wunderground v.1.15,2013-03-07 11:56:00,
2013-03-07 04:02:00,49.1,48.3,30.01,WSW,247,0.0,0.0,97,0.00,,,0.00,Wunderground v.1.15,2013-03-07 12:02:00,
2013-03-07 04:08:00,49.1,48.3,30.01,WSW,247,0.0,0.0,97,0.00,,,0.00,Wunderground v.1.15,2013-03-07 12:08:00,
2013-03-07 04:14:00,49.0,48.2,30.01,WSW,247,0.0,0.0,97,0.00,,,0.00,Wunderground v.1.15,2013-03-07 12:14:00,
2013-03-07 04:20:00,49.0,48.2,30.01,WSW,247,0.0,0.0,97,0.00,,,0.00,Wunderground v.1.15,2013-03-07 12:20:00,
2013-03-07 04:26:00,49.0,48.2,30.01,WSW,248,0.0,0.0,97,0.00,,,0.00,Wunderground v.1.15,2013-03-07 12:26:00,
2013-03-07 04:32:00,49.0,48.2,30.01,WSW,247,0.0,0.0,97,0.00,,,0.00,Wunderground v.1.15,2013-03-07 12:32:00,
2013-03-07 04:38:00,49.1,48.3,30.01,WSW,248,0.0,0.0,97,0.00,,,0.00,Wunderground v.1.15,2013-03-07 12:38:00,
2013-03-07 04:44:00,49.1,48.3,30.01,WSW,248,0.0,0.0,97,0.00,,,0.00,Wunderground v.1.15,2013-03-07 12:44:00,
2013-03-07 04:50:00,49.0,48.2,30.01,WSW,247,0.0,0.0,97,0.00,,,0.00,Wunderground v.1.15,2013-03-07 12:50:00,
2013-03-07 04:56:00,48.8,48.0,30.01,WSW,248,0.0,0.0,97,0.00,,,0.00,Wunderground v.1.15,2013-03-07 12:56:00,
2013-03-07 05:02:00,48.5,47.7,30.01,SW,215,0.0,0.0,97,0.00,,,0.00,Wunderground v.1.15,2013-03-07 13:02:00,
2013-03-07 05:08:00,48.2,47.4,30.01,SW,216,0.0,0.0,97,0.00,,,0.00,Wunderground v.1.15,2013-03-07 13:08:00,
2013-03-07 05:14:00,48.0,47.2,30.01,SW,215,0.0,0.0,97,0.00,,,0.00,Wunderground v.1.15,2013-03-07 13:14:00,
2013-03-07 05:20:00,48.1,47.3,30.01,SW,216,0.0,0.0,97,0.00,,,0.00,Wunderground v.1.15,2013-03-07 13:20:00,
2013-03-07 05:26:00,48.0,47.2,30.01,SW,215,0.0,0.0,97,0.00,,,0.00,Wunderground v.1.15,2013-03-07 13:26:00,
2013-03-07 05:32:00,48.0,47.2,30.01,SW,216,0.0,0.0,97,0.00,,,0.00,Wunderground v.1.15,2013-03-07 13:32:00,
2013-03-07 05:38:00,48.0,47.2,30.01,SW,216,0.0,0.0,97,0.00,,,0.00,Wunderground v.1.15,2013-03-07 13:38:00,
2013-03-07 05:44:00,47.7,46.9,30.01,SW,215,0.0,0.0,97,0.00,,,0.00,Wunderground v.1.15,2013-03-07 13:44:00,
2013-03-07 05:50:00,47.6,46.8,30.01,SW,216,0.0,0.0,97,0.00,,,0.00,Wunderground v.1.15,2013-03-07 13:50:00,
2013-03-07 05:56:00,47.6,46.8,30.01,SW,216,0.0,0.0,97,0.00,,,0.00,Wunderground v.1.15,2013-03-07 13:56:00,
2013-03-07 06:02:00,47.5,46.7,30.01,SW,216,0.0,0.0,97,0.00,,,0.00,Wunderground v.1.15,2013-03-07 14:02:00,
2013-03-07 06:08:00,47.1,46.3,30.01,SW,215,0.0,0.0,97,0.00,,,0.00,Wunderground v.1.15,2013-03-07 14:08:00,
2013-03-07 06:14:00,47.0,46.2,30.01,SW,215,0.0,0.0,97,0.00,,,0.00,Wunderground v.1.15,2013-03-07 14:14:00,
2013-03-07 06:20:00,47.2,46.7,30.01,SE,127,0.0,0.0,98,0.00,,,0.00,Wunderground v.1.15,2013-03-07 14:20:00,
2013-03-07 06:26:00,47.3,46.8,30.01,SE,127,0.0,0.0,98,0.00,,,0.00,Wunderground v.1.15,2013-03-07 14:26:00,
2013-03-07 06:32:00,47.4,46.9,30.01,SE,128,0.0,0.0,98,0.00,,,0.00,Wunderground v.1.15,2013-03-07 14:32:00,
2013-03-07 06:38:00,47.5,47.0,30.01,SE,124,0.0,0.0,98,0.00,,,0.00,Wunderground v.1.15,2013-03-07 14:38:00,
2013-03-07 06:44:00,47.3,46.5,30.01,SE,124,0.0,0.0,97,0.00,,,0.00,Wunderground v.1.15,2013-03-07 14:44:00,
2013-03-07 06:50:00,47.3,46.5,30.01,SE,124,0.0,0.0,97,0.00,,,0.00,Wunderground v.1.15,2013-03-07 14:50:00,
2013-03-07 06:56:00,47.3,46.5,30.01,SE,124,0.0,0.0,97,0.00,,,0.00,Wunderground v.1.15,2013-03-07 14:56:00,
2013-03-07 07:02:00,47.4,46.9,30.01,SE,124,0.0,0.0,98,0.00,,,0.00,Wunderground v.1.15,2013-03-07 15:02:00,
2013-03-07 07:08:00,47.5,47.0,30.02,SE,124,0.0,0.0,98,0.00,,,0.00,Wunderground v.1.15,2013-03-07 15:08:00,
2013-03-07 07:14:00,47.7,47.2,30.02,SE,124,0.0,0.0,98,0.00,,,0.00,Wunderground v.1.15,2013-03-07 15:14:00,
2013-03-07 07:20:00,48.0,47.5,30.02,SE,124,0.0,0.0,98,0.00,,,0.00,Wunderground v.1.15,2013-03-07 15:20:00,
2013-03-07 07:26:00,48.3,47.8,30.02,SE,124,0.0,0.0,98,0.00,,,0.00,Wunderground v.1.15,2013-03-07 15:26:00,
2013-03-07 07:32:00,48.5,48.0,30.02,West,264,0.0,0.0,98,0.00,,,0.00,Wunderground v.1.15,2013-03-07 15:32:00,
2013-03-07 07:38:00,48.6,48.1,30.02,WSW,254,0.0,0.0,98,0.00,,,0.00,Wunderground v.1.15,2013-03-07 15:38:00,
2013-03-07 07:44:00,48.6,47.8,30.02,WSW,254,0.0,0.0,97,0.00,,,0.00,Wunderground v.1.15,2013-03-07 15:44:00,
2013-03-07 07:50:00,48.9,48.4,30.02,WSW,255,0.0,0.0,98,0.00,,,0.00,Wunderground v.1.15,2013-03-07 15:50:00,
2013-03-07 07:56:00,49.4,48.9,30.03,WSW,253,0.0,0.0,98,0.00,,,0.00,Wunderground v.1.15,2013-03-07 15:56:00,
2013-03-07 08:02:00,49.7,49.2,30.03,WSW,254,0.0,0.0,98,0.00,,,0.00,Wunderground v.1.15,2013-03-07 16:02:00,
2013-03-07 08:08:00,49.8,49.0,30.03,WSW,255,0.0,0.0,97,0.00,,,0.00,Wunderground v.1.15,2013-03-07 16:08:00,
2013-03-07 08:14:00,50.2,49.4,30.03,WSW,255,0.0,0.0,97,0.00,,,0.00,Wunderground v.1.15,2013-03-07 16:14:00,
2013-03-07 08:20:00,50.4,49.6,30.03,WSW,247,0.0,0.0,97,0.00,,,0.00,Wunderground v.1.15,2013-03-07 16:20:00,
2013-03-07 08:26:00,50.5,49.4,30.03,WSW,256,1.0,3.0,96,0.00,,,0.00,Wunderground v.1.15,2013-03-07 16:26:00,
2013-03-07 08:32:00,50.8,49.7,30.03,SW,217,1.0,1.0,96,0.00,,,0.01,Wunderground v.1.15,2013-03-07 16:32:00,
2013-03-07 08:38:00,51.0,49.9,30.03,WSW,242,1.0,1.0,96,0.00,,,0.01,Wunderground v.1.15,2013-03-07 16:38:00,
2013-03-07 08:44:00,51.3,49.9,30.02,WSW,243,0.0,0.0,95,0.00,,,0.01,Wunderground v.1.15,2013-03-07 16:44:00,
2013-03-07 08:50:00,51.6,49.9,30.03,WSW,246,0.0,0.0,94,0.00,,,0.01,Wunderground v.1.15,2013-03-07 16:50:00,
2013-03-07 08:56:00,51.7,49.7,30.02,WSW,253,0.0,0.0,93,0.00,,,0.01,Wunderground v.1.15,2013-03-07 16:56:00,
2013-03-07 09:02:00,51.8,49.5,30.02,SW,229,0.0,3.0,92,0.00,,,0.01,Wunderground v.1.15,2013-03-07 17:02:00,
2013-03-07 09:08:00,52.2,49.9,30.02,SW,226,0.0,3.0,92,0.00,,,0.01,Wunderground v.1.15,2013-03-07 17:08:00,
2013-03-07 09:14:00,52.3,49.8,30.02,WSW,240,1.0,2.0,91,0.00,,,0.01,Wunderground v.1.15,2013-03-07 17:14:00,
2013-03-07 09:20:00,52.7,50.1,30.02,SE,124,0.0,0.0,91,0.00,,,0.01,Wunderground v.1.15,2013-03-07 17:20:00,
2013-03-07 09:26:00,53.0,49.8,30.02,ESE,107,0.0,1.0,89,0.00,,,0.01,Wunderground v.1.15,2013-03-07 17:26:00,
2013-03-07 09:32:00,53.7,50.5,30.02,SSE,167,0.0,2.0,89,0.00,,,0.01,Wunderground v.1.15,2013-03-07 17:32:00,
2013-03-07 09:38:00,54.2,50.1,30.02,NE,56,0.0,3.0,86,0.00,,,0.01,Wunderground v.1.15,2013-03-07 17:38:00,
2013-03-07 09:44:00,54.9,49.2,30.02,SW,236,0.0,3.0,81,0.00,,,0.01,Wunderground v.1.15,2013-03-07 17:44:00,
2013-03-07 09:50:00,55.3,47.9,30.02,SW,229,1.0,1.0,76,0.00,,,0.01,Wunderground v.1.15,2013-03-07 17:50:00,
2013-03-07 09:56:00,55.8,48.3,30.02,West,262,1.0,3.0,76,0.00,,,0.01,Wunderground v.1.15,2013-03-07 17:56:00,
2013-03-07 10:02:00,55.7,47.5,30.01,WSW,250,1.0,1.0,74,0.00,,,0.01,Wunderground v.1.15,2013-03-07 18:02:00,
2013-03-07 10:08:00,56.2,48.0,30.01,WSW,256,0.0,1.0,74,0.00,,,0.01,Wunderground v.1.15,2013-03-07 18:08:00,
2013-03-07 10:14:00,56.4,47.5,30.01,SE,133,0.0,0.0,72,0.00,,,0.01,Wunderground v.1.15,2013-03-07 18:14:00,
2013-03-07 10:20:00,57.0,48.4,30.02,WSW,240,0.0,0.0,73,0.00,,,0.01,Wunderground v.1.15,2013-03-07 18:20:00,
2013-03-07 10:26:00,57.4,46.9,30.02,North,8,0.0,1.0,68,0.00,,,0.01,Wunderground v.1.15,2013-03-07 18:26:00,
2013-03-07 10:32:00,57.6,47.9,30.02,WSW,257,0.0,3.0,70,0.00,,,0.01,Wunderground v.1.15,2013-03-07 18:32:00,
2013-03-07 10:38:00,57.6,47.1,30.02,SSW,200,1.0,3.0,68,0.00,,,0.01,Wunderground v.1.15,2013-03-07 18:38:00,
2013-03-07 10:44:00,57.6,47.9,30.01,SW,236,1.0,3.0,70,0.00,,,0.01,Wunderground v.1.15,2013-03-07 18:44:00,
2013-03-07 10:50:00,57.6,46.7,30.02,WSW,239,1.0,1.0,67,0.00,,,0.01,Wunderground v.1.15,2013-03-07 18:50:00,
2013-03-07 10:56:00,56.8,46.7,30.02,SW,225,2.0,8.0,69,0.00,,,0.01,Wunderground v.1.15,2013-03-07 18:56:00,
2013-03-07 11:02:00,56.2,46.9,30.02,SW,229,4.0,5.0,71,0.00,,,0.01,Wunderground v.1.15,2013-03-07 19:02:00,
2013-03-07 11:08:00,55.8,46.9,30.02,SW,229,4.0,5.0,72,0.00,,,0.01,Wunderground v.1.15,2013-03-07 19:08:00,
2013-03-07 11:14:00,56.2,47.3,30.01,SW,236,3.0,4.0,72,0.00,,,0.01,Wunderground v.1.15,2013-03-07 19:14:00,
2013-03-07 11:20:00,56.5,47.2,30.01,SW,221,3.0,4.0,71,0.00,,,0.01,Wunderground v.1.15,2013-03-07 19:20:00,
2013-03-07 11:26:00,56.6,46.5,30.01,WSW,237,4.0,5.0,69,0.00,,,0.01,Wunderground v.1.15,2013-03-07 19:26:00,
2013-03-07 11:32:00,57.2,45.9,30.01,SW,233,4.0,8.0,66,0.00,,,0.01,Wunderground v.1.15,2013-03-07 19:32:00,
2013-03-07 11:38:00,56.7,45.1,30.01,SW,224,6.0,9.0,65,0.00,,,0.01,Wunderground v.1.15,2013-03-07 19:38:00,
2013-03-07 11:44:00,57.1,45.8,30.01,SSW,211,5.0,6.0,66,0.00,,,0.01,Wunderground v.1.15,2013-03-07 19:44:00,
2013-03-07 11:50:00,57.2,45.9,30.01,West,266,5.0,5.0,66,0.00,,,0.01,Wunderground v.1.15,2013-03-07 19:50:00,
2013-03-07 11:56:00,57.2,45.9,30.00,WSW,256,5.0,6.0,66,0.00,,,0.01,Wunderground v.1.15,2013-03-07 19:56:00,
2013-03-07 12:02:00,57.0,45.3,30.00,WSW,241,5.0,5.0,65,0.00,,,0.01,Wunderground v.1.15,2013-03-07 20:02:00,
2013-03-07 12:08:00,57.1,44.6,30.00,West,280,6.0,6.0,63,0.00,,,0.01,Wunderground v.1.15,2013-03-07 20:08:00,
2013-03-07 12:14:00,57.3,45.2,30.00,WSW,243,6.0,6.0,64,0.00,,,0.01,Wunderground v.1.15,2013-03-07 20:14:00,
2013-03-07 12:20:00,57.4,44.9,30.00,SW,218,6.0,6.0,63,0.00,,,0.01,Wunderground v.1.15,2013-03-07 20:20:00,
2013-03-07 12:26:00,57.7,44.8,29.99,WSW,240,5.0,6.0,62,0.00,,,0.01,Wunderground v.1.15,2013-03-07 20:26:00,
2013-03-07 12:32:00,57.9,44.5,29.99,SW,222,5.0,12.0,61,0.00,,,0.01,Wunderground v.1.15,2013-03-07 20:32:00,
2013-03-07 12:38:00,58.1,43.4,29.99,SW,228,5.0,12.0,58,0.00,,,0.01,Wunderground v.1.15,2013-03-07 20:38:00,
2013-03-07 12:44:00,57.9,44.5,29.98,WSW,246,5.0,12.0,61,0.00,,,0.01,Wunderground v.1.15,2013-03-07 20:44:00,
2013-03-07 12:50:00,58.1,45.6,29.98,WSW,246,5.0,12.0,63,0.00,,,0.01,Wunderground v.1.15,2013-03-07 20:50:00,
2013-03-07 12:56:00,58.4,45.0,29.98,WSW,240,5.0,12.0,61,0.00,,,0.01,Wunderground v.1.15,2013-03-07 20:56:00,
2013-03-07 13:02:00,58.3,44.5,29.98,WSW,248,4.0,6.0,60,0.00,,,0.01,Wunderground v.1.15,2013-03-07 21:02:00,
2013-03-07 13:08:00,58.4,44.1,29.97,WSW,258,5.0,6.0,59,0.00,,,0.01,Wunderground v.1.15,2013-03-07 21:08:00,
2013-03-07 13:14:00,58.6,43.9,29.97,WSW,245,4.0,6.0,58,0.00,,,0.01,Wunderground v.1.15,2013-03-07 21:14:00,
2013-03-07 13:20:00,58.6,43.9,29.97,SW,217,5.0,5.0,58,0.00,,,0.01,Wunderground v.1.15,2013-03-07 21:20:00,
2013-03-07 13:26:00,58.4,44.6,29.97,SW,231,5.0,5.0,60,0.00,,,0.01,Wunderground v.1.15,2013-03-07 21:26:00,
2013-03-07 13:32:00,57.7,43.9,29.97,SW,233,5.0,13.0,60,0.00,,,0.01,Wunderground v.1.15,2013-03-07 21:32:00,
2013-03-07 13:38:00,57.6,43.8,29.97,West,259,5.0,13.0,60,0.00,,,0.01,Wunderground v.1.15,2013-03-07 21:38:00,
2013-03-07 13:44:00,57.0,44.1,29.96,West,264,6.0,13.0,62,0.00,,,0.01,Wunderground v.1.15,2013-03-07 21:44:00,
2013-03-07 13:50:00,57.4,44.1,29.96,WSW,244,5.0,5.0,61,0.00,,,0.01,Wunderground v.1.15,2013-03-07 21:50:00,
2013-03-07 13:56:00,57.4,42.7,29.97,WSW,239,5.0,13.0,58,0.00,,,0.01,Wunderground v.1.15,2013-03-07 21:56:00,
2013-03-07 14:02:00,57.5,41.9,29.96,West,264,5.0,7.0,56,0.00,,,0.01,Wunderground v.1.15,2013-03-07 22:02:00,
2013-03-07 14:08:00,57.2,41.2,29.96,WSW,243,4.0,7.0,55,0.00,,,0.01,Wunderground v.1.15,2013-03-07 22:08:00,
2013-03-07 14:14:00,57.8,42.7,29.96,West,262,4.0,5.0,57,0.00,,,0.01,Wunderground v.1.15,2013-03-07 22:14:00,
2013-03-07 14:20:00,58.1,41.5,29.96,SW,219,4.0,4.0,54,0.00,,,0.01,Wunderground v.1.15,2013-03-07 22:20:00,
2013-03-07 14:26:00,58.2,42.1,29.96,West,259,3.0,5.0,55,0.00,,,0.01,Wunderground v.1.15,2013-03-07 22:26:00,
2013-03-07 14:32:00,58.4,41.8,29.96,ESE,108,3.0,12.0,54,0.00,,,0.01,Wunderground v.1.15,2013-03-07 22:32:00,
2013-03-07 14:38:00,57.8,40.8,29.96,West,277,4.0,12.0,53,0.00,,,0.01,Wunderground v.1.15,2013-03-07 22:38:00,
2013-03-07 14:44:00,57.7,41.6,29.96,West,262,5.0,12.0,55,0.00,,,0.01,Wunderground v.1.15,2013-03-07 22:44:00,
2013-03-07 14:50:00,58.2,42.6,29.96,SW,217,4.0,4.0,56,0.00,,,0.01,Wunderground v.1.15,2013-03-07 22:50:00,
2013-03-07 14:56:00,58.6,42.0,29.96,WSW,251,3.0,12.0,54,0.00,,,0.01,Wunderground v.1.15,2013-03-07 22:56:00,
2013-03-07 15:02:00,59.0,42.4,29.96,South,191,4.0,4.0,54,0.00,,,0.01,Wunderground v.1.15,2013-03-07 23:02:00,
2013-03-07 15:08:00,59.1,40.5,29.95,SW,235,4.0,4.0,50,0.00,,,0.01,Wunderground v.1.15,2013-03-07 23:08:00,
2013-03-07 15:14:00,58.9,40.3,29.95,SW,228,4.0,5.0,50,0.00,,,0.01,Wunderground v.1.15,2013-03-07 23:14:00,
2013-03-07 15:20:00,58.6,40.5,29.95,WSW,252,5.0,5.0,51,0.00,,,0.01,Wunderground v.1.15,2013-03-07 23:20:00,
2013-03-07 15:26:00,58.4,40.8,29.95,WSW,250,5.0,5.0,52,0.00,,,0.01,Wunderground v.1.15,2013-03-07 23:26:00,
2013-03-07 15:32:00,58.1,40.1,29.95,WSW,256,4.0,9.0,51,0.00,,,0.01,Wunderground v.1.15,2013-03-07 23:32:00,
2013-03-07 15:38:00,58.0,41.0,29.95,SW,225,4.0,9.0,53,0.00,,,0.01,Wunderground v.1.15,2013-03-07 23:38:00,
2013-03-07 15:44:00,57.7,40.2,29.95,WSW,255,4.0,9.0,52,0.00,,,0.01,Wunderground v.1.15,2013-03-07 23:44:00,
2013-03-07 15:50:00,58.0,41.0,29.95,WSW,253,4.0,4.0,53,0.00,,,0.01,Wunderground v.1.15,2013-03-07 23:50:00,
2013-03-07 15:56:00,58.4,40.3,29.95,WSW,238,4.0,9.0,51,0.00,,,0.01,Wunderground v.1.15,2013-03-07 23:56:00,
2013-03-07 16:02:00,58.2,40.1,29.95,WSW,256,4.0,5.0,51,0.00,,,0.01,Wunderground v.1.15,2013-03-08 00:02:00,
2013-03-07 16:08:00,57.7,40.7,29.95,WSW,245,4.0,5.0,53,0.00,,,0.01,Wunderground v.1.15,2013-03-08 00:08:00,
2013-03-07 16:14:00,57.6,40.6,29.94,WSW,245,4.0,4.0,53,0.00,,,0.01,Wunderground v.1.15,2013-03-08 00:14:00,
2013-03-07 16:20:00,57.0,40.5,29.94,West,262,4.0,4.0,54,0.00,,,0.01,Wunderground v.1.15,2013-03-08 00:20:00,
2013-03-07 16:26:00,56.5,40.5,29.94,West,267,3.0,4.0,55,0.00,,,0.01,Wunderground v.1.15,2013-03-08 00:26:00,
2013-03-07 16:32:00,56.1,40.6,29.94,WSW,256,3.0,4.0,56,0.00,,,0.01,Wunderground v.1.15,2013-03-08 00:32:00,
2013-03-07 16:38:00,55.6,40.6,29.94,SW,225,3.0,10.0,57,0.00,,,0.01,Wunderground v.1.15,2013-03-08 00:38:00,
2013-03-07 16:44:00,55.7,40.7,29.94,WSW,244,2.0,10.0,57,0.00,,,0.01,Wunderground v.1.15,2013-03-08 00:44:00,
2013-03-07 16:50:00,55.5,40.0,29.94,SW,229,2.0,10.0,56,0.00,,,0.01,Wunderground v.1.15,2013-03-08 00:50:00,
2013-03-07 16:56:00,55.0,40.0,29.94,SW,219,3.0,10.0,57,0.00,,,0.01,Wunderground v.1.15,2013-03-08 00:56:00,
2013-03-07 17:02:00,54.7,39.8,29.94,SW,229,3.0,5.0,57,0.00,,,0.01,Wunderground v.1.15,2013-03-08 01:02:00,
2013-03-07 17:08:00,54.4,39.9,29.94,WSW,255,3.0,5.0,58,0.00,,,0.01,Wunderground v.1.15,2013-03-08 01:08:00,
2013-03-07 17:14:00,54.3,40.3,29.94,WSW,257,2.0,3.0,59,0.00,,,0.01,Wunderground v.1.15,2013-03-08 01:14:00,
2013-03-07 17:20:00,54.3,40.3,29.94,WSW,249,0.0,0.0,59,0.00,,,0.01,Wunderground v.1.15,2013-03-08 01:20:00,
2013-03-07 17:26:00,54.1,39.6,29.94,WSW,253,0.0,1.0,58,0.00,,,0.01,Wunderground v.1.15,2013-03-08 01:26:00,
2013-03-07 17:32:00,54.0,39.5,29.94,WSW,253,0.0,11.0,58,0.00,,,0.01,Wunderground v.1.15,2013-03-08 01:32:00,
2013-03-07 17:38:00,53.9,39.0,29.94,SW,225,0.0,11.0,57,0.00,,,0.01,Wunderground v.1.15,2013-03-08 01:38:00,
2013-03-07 17:44:00,53.9,39.0,29.94,WSW,253,1.0,11.0,57,0.00,,,0.01,Wunderground v.1.15,2013-03-08 01:44:00,
2013-03-07 17:50:00,53.8,39.4,29.94,WSW,250,0.0,11.0,58,0.00,,,0.01,Wunderground v.1.15,2013-03-08 01:50:00,
2013-03-07 17:56:00,53.7,40.1,29.94,WSW,250,0.0,11.0,60,0.00,,,0.01,Wunderground v.1.15,2013-03-08 01:56:00,
2013-03-07 18:02:00,53.4,39.9,29.93,SSE,160,0.0,0.0,60,0.00,,,0.01,Wunderground v.1.15,2013-03-08 02:02:00,
2013-03-07 18:08:00,53.3,40.6,29.93,WSW,250,0.0,0.0,62,0.00,,,0.01,Wunderground v.1.15,2013-03-08 02:08:00,
2013-03-07 18:14:00,53.1,40.4,29.94,ENE,69,0.0,1.0,62,0.00,,,0.01,Wunderground v.1.15,2013-03-08 02:14:00,
2013-03-07 18:20:00,52.9,40.6,29.93,WNW,297,0.0,0.0,63,0.00,,,0.01,Wunderground v.1.15,2013-03-08 02:20:00,
2013-03-07 18:26:00,52.6,41.2,29.93,SSE,167,0.0,0.0,65,0.00,,,0.01,Wunderground v.1.15,2013-03-08 02:26:00,
2013-03-07 18:32:00,52.2,41.2,29.93,SSE,168,0.0,7.0,66,0.00,,,0.01,Wunderground v.1.15,2013-03-08 02:32:00,
2013-03-07 18:38:00,52.0,41.0,29.93,SSE,167,0.0,7.0,66,0.00,,,0.01,Wunderground v.1.15,2013-03-08 02:38:00,
2013-03-07 18:44:00,52.0,41.4,29.93,WSW,248,0.0,7.0,67,0.00,,,0.01,Wunderground v.1.15,2013-03-08 02:44:00,
2013-03-07 18:50:00,51.9,40.9,29.93,SE,127,0.0,7.0,66,0.00,,,0.01,Wunderground v.1.15,2013-03-08 02:50:00,
2013-03-07 18:56:00,52.0,41.0,29.93,NNW,342,0.0,7.0,66,0.00,,,0.01,Wunderground v.1.15,2013-03-08 02:56:00,
2013-03-07 19:02:00,51.9,41.3,29.93,East,82,0.0,0.0,67,0.00,,,0.01,Wunderground v.1.15,2013-03-08 03:02:00,
2013-03-07 19:08:00,51.8,41.6,29.93,East,82,0.0,0.0,68,0.00,,,0.01,Wunderground v.1.15,2013-03-08 03:08:00,
2013-03-07 19:14:00,51.6,41.0,29.93,East,82,0.0,0.0,67,0.00,,,0.01,Wunderground v.1.15,2013-03-08 03:14:00,
2013-03-07 19:20:00,51.7,41.1,29.93,SW,219,0.0,0.0,67,0.00,,,0.01,Wunderground v.1.15,2013-03-08 03:20:00,
2013-03-07 19:26:00,51.9,42.0,29.93,WSW,245,0.0,0.0,69,0.00,,,0.01,Wunderground v.1.15,2013-03-08 03:26:00,
2013-03-07 19:32:00,51.8,42.3,29.93,WSW,245,0.0,2.0,70,0.00,,,0.01,Wunderground v.1.15,2013-03-08 03:32:00,
2013-03-07 19:38:00,51.6,42.9,29.93,WSW,238,0.0,2.0,72,0.00,,,0.01,Wunderground v.1.15,2013-03-08 03:38:00,
2013-03-07 19:44:00,51.2,43.5,29.94,East,91,0.0,2.0,75,0.00,,,0.01,Wunderground v.1.15,2013-03-08 03:44:00,
2013-03-07 19:50:00,50.4,44.1,29.94,East,101,0.0,2.0,79,0.00,,,0.02,Wunderground v.1.15,2013-03-08 03:50:00,
2013-03-07 19:56:00,49.7,44.7,29.94,North,11,0.0,2.0,83,0.07,,,0.03,Wunderground v.1.15,2013-03-08 03:56:00,
2013-03-07 20:02:00,49.4,45.1,29.93,North,3,0.0,0.0,85,0.09,,,0.04,Wunderground v.1.15,2013-03-08 04:02:00,
2013-03-07 20:08:00,49.3,45.6,29.93,NNW,343,0.0,0.0,87,0.08,,,0.04,Wunderground v.1.15,2013-03-08 04:08:00,
2013-03-07 20:14:00,49.2,45.8,29.93,NNW,343,0.0,0.0,88,0.04,,,0.04,Wunderground v.1.15,2013-03-08 04:14:00,
2013-03-07 20:20:00,49.1,46.0,29.93,NNW,342,0.0,0.0,89,0.04,,,0.05,Wunderground v.1.15,2013-03-08 04:20:00,
2013-03-07 20:26:00,49.1,46.3,29.93,North,1,0.0,0.0,90,0.04,,,0.05,Wunderground v.1.15,2013-03-08 04:26:00,
2013-03-07 20:32:00,49.0,46.2,29.92,North,360,0.0,2.0,90,0.04,,,0.05,Wunderground v.1.15,2013-03-08 04:32:00,
2013-03-07 20:38:00,48.8,46.3,29.93,North,360,0.0,2.0,91,0.00,,,0.05,Wunderground v.1.15,2013-03-08 04:38:00,
2013-03-07 20:44:00,48.5,46.0,29.92,North,360,0.0,2.0,91,0.00,,,0.05,Wunderground v.1.15,2013-03-08 04:44:00,
2013-03-07 20:50:00,48.4,45.9,29.92,North,360,0.0,2.0,91,0.00,,,0.05,Wunderground v.1.15,2013-03-08 04:50:00,
2013-03-07 20:56:00,48.3,46.1,29.92,North,1,0.0,2.0,92,0.00,,,0.05,Wunderground v.1.15,2013-03-08 04:56:00,
2013-03-07 21:00:00,48.2,46.0,29.92,North,1,0.0,0.0,92,0.00,,,0.05,Wunderground v.1.15,2013-03-08 05:00:00,
2013-03-07 21:04:00,48.1,45.9,29.92,North,1,0.0,0.0,92,0.00,,,0.05,Wunderground v.1.15,2013-03-08 05:04:00,
2013-03-07 21:06:00,48.1,45.9,29.92,North,8,0.0,0.0,92,0.00,,,0.05,Wunderground v.1.15,2013-03-08 05:06:00,
2013-03-07 21:08:00,48.1,45.9,29.92,NE,46,0.0,0.0,92,0.00,,,0.05,Wunderground v.1.15,2013-03-08 05:08:00,
2013-03-07 21:14:00,48.1,46.2,29.92,NE,34,0.0,0.0,93,0.00,,,0.05,Wunderground v.1.15,2013-03-08 05:14:00,
2013-03-07 21:20:00,48.3,46.4,29.92,NNE,12,0.0,0.0,93,0.00,,,0.05,Wunderground v.1.15,2013-03-08 05:20:00,
2013-03-07 21:26:00,48.3,46.4,29.92,ENE,65,0.0,0.0,93,0.00,,,0.05,Wunderground v.1.15,2013-03-08 05:26:00,
2013-03-07 21:32:00,48.2,46.3,29.92,ENE,65,0.0,3.0,93,0.00,,,0.05,Wunderground v.1.15,2013-03-08 05:32:00,
2013-03-07 21:38:00,48.1,46.2,29.92,NNW,333,0.0,3.0,93,0.00,,,0.05,Wunderground v.1.15,2013-03-08 05:38:00,
2013-03-07 21:44:00,48.1,46.2,29.91,NNW,333,0.0,3.0,93,0.00,,,0.06,Wunderground v.1.15,2013-03-08 05:44:00,
2013-03-07 21:50:00,48.1,46.5,29.91,NNW,339,0.0,3.0,94,0.08,,,0.07,Wunderground v.1.15,2013-03-08 05:50:00,
2013-03-07 21:56:00,48.0,46.4,29.91,NNE,29,0.0,3.0,94,0.06,,,0.07,Wunderground v.1.15,2013-03-08 05:56:00,
2013-03-07 22:02:00,48.0,46.4,29.90,North,355,0.0,0.0,94,0.04,,,0.08,Wunderground v.1.15,2013-03-08 06:02:00,
2013-03-07 22:08:00,48.0,46.4,29.90,NNE,15,0.0,2.0,94,0.04,,,0.08,Wunderground v.1.15,2013-03-08 06:08:00,
2013-03-07 22:14:00,48.0,46.4,29.90,NNW,347,0.0,0.0,94,0.06,,,0.09,Wunderground v.1.15,2013-03-08 06:14:00,
2013-03-07 22:20:00,48.0,46.6,29.90,NNW,336,0.0,0.0,95,0.16,,,0.11,Wunderground v.1.15,2013-03-08 06:20:00,
2013-03-07 22:26:00,48.1,46.7,29.89,NNW,346,0.0,0.0,95,0.18,,,0.12,Wunderground v.1.15,2013-03-08 06:26:00,
2013-03-07 22:32:00,48.1,46.7,29.89,NNW,336,0.0,3.0,95,0.09,,,0.13,Wunderground v.1.15,2013-03-08 06:32:00,
2013-03-07 22:38:00,48.0,46.6,29.88,North,6,0.0,3.0,95,0.07,,,0.13,Wunderground v.1.15,2013-03-08 06:38:00,
2013-03-07 22:44:00,47.9,46.5,29.88,North,6,0.0,3.0,95,0.24,,,0.16,Wunderground v.1.15,2013-03-08 06:44:00,
2013-03-07 22:50:00,47.8,46.4,29.88,ENE,61,0.0,3.0,95,0.13,,,0.17,Wunderground v.1.15,2013-03-08 06:50:00,
2013-03-07 22:56:00,47.6,46.2,29.88,NNE,13,0.0,3.0,95,0.19,,,0.19,Wunderground v.1.15,2013-03-08 06:56:00,
2013-03-07 23:02:00,47.5,46.1,29.87,North,355,1.0,1.0,95,0.19,,,0.20,Wunderground v.1.15,2013-03-08 07:02:00,
2013-03-07 23:08:00,47.4,46.0,29.87,North,10,0.0,3.0,95,0.11,,,0.21,Wunderground v.1.15,2013-03-08 07:08:00,
2013-03-07 23:14:00,47.3,45.9,29.87,North,4,0.0,1.0,95,0.05,,,0.21,Wunderground v.1.15,2013-03-08 07:14:00,
2013-03-07 23:20:00,47.4,46.3,29.86,NNW,343,1.0,1.0,96,0.00,,,0.21,Wunderground v.1.15,2013-03-08 07:20:00,
2013-03-07 23:26:00,47.5,46.4,29.86,North,352,1.0,2.0,96,0.00,,,0.22,Wunderground v.1.15,2013-03-08 07:26:00,
2013-03-07 23:32:00,47.4,46.3,29.85,North,356,1.0,3.0,96,0.00,,,0.22,Wunderground v.1.15,2013-03-08 07:32:00,
2013-03-07 23:38:00,47.4,46.3,29.85,NNE,15,0.0,3.0,96,0.00,,,0.22,Wunderground v.1.15,2013-03-08 07:38:00,
2013-03-07 23:44:00,47.4,46.3,29.85,NNW,329,0.0,3.0,96,0.00,,,0.22,Wunderground v.1.15,2013-03-08 07:44:00,
2013-03-07 23:50:00,47.5,46.4,29.84,NNE,32,0.0,3.0,96,0.00,,,0.22,Wunderground v.1.15,2013-03-08 07:50:00,
2013-03-07 23:56:00,47.5,46.4,29.84,North,11,0.0,3.0,96,0.00,,,0.22,Wunderground v.1.15,2013-03-08 07:56:00,